Time;durP1;ratioP1;P1;durP2;ratioP2;P2;SDS_P1;SDS_P2;PMS_P1;PMS_P2;Temp;Humidity;BMP_temperature;BMP_pressure;BME280_temperature;BME280_humidity;BME280_pressure;Samples;Min_cycle;Max_cycle;Signal;HPM_P1;HPM_P2
2023/01/10 00:02:09;;;;;;;14.40;4.00;;;;;;;6.61;100.00;100915.16;4957270;29;20047;-75
2023/01/10 00:04:34;;;;;;;18.70;4.03;;;;;;;6.44;100.00;100907.16;4938631;28;20202;-75
2023/01/10 00:07:00;;;;;;;7.10;2.88;;;;;;;6.39;100.00;100914.72;4946392;29;20031;-75
2023/01/10 00:09:25;;;;;;;22.55;3.63;;;;;;;6.33;100.00;100915.09;4938396;29;20069;-75
2023/01/10 00:14:36;;;;;;;19.25;4.13;;;;;;;6.22;100.00;100934.78;4939294;29;20063;-75
2023/01/10 00:17:02;;;;;;;23.02;4.03;;;;;;;6.21;100.00;100938.44;4940650;29;20141;-74
2023/01/10 00:19:27;;;;;;;17.45;4.15;;;;;;;6.18;100.00;100944.97;4974217;28;20106;-75
2023/01/10 00:21:54;;;;;;;22.88;4.15;;;;;;;6.09;100.00;100944.63;4936889;29;20116;-74
2023/01/10 00:24:22;;;;;;;19.95;3.95;;;;;;;6.11;100.00;100949.00;4920755;29;20036;-74
2023/01/10 00:26:52;;;;;;;19.63;4.75;;;;;;;6.09;100.00;100956.38;4927167;29;20042;-74
2023/01/10 00:29:24;;;;;;;13.02;3.53;;;;;;;6.05;100.00;100958.41;4950989;29;20425;-75
2023/01/10 00:31:50;;;;;;;29.75;4.60;;;;;;;6.04;100.00;100966.63;4928500;29;20107;-75
2023/01/10 00:34:15;;;;;;;18.10;4.68;;;;;;;6.04;100.00;100970.22;4942996;29;20035;-76
2023/01/10 00:36:41;;;;;;;15.40;3.13;;;;;;;5.92;100.00;100975.47;4956480;28;20046;-74
2023/01/10 00:39:09;;;;;;;24.02;3.90;;;;;;;6.01;100.00;100983.13;4951601;28;20118;-75
2023/01/10 00:44:19;;;;;;;24.77;3.85;;;;;;;6.07;100.00;100988.22;4922549;29;20059;-75
2023/01/10 00:46:44;;;;;;;23.90;3.25;;;;;;;5.96;100.00;100993.34;4935354;29;20119;-75
2023/01/10 00:49:12;;;;;;;26.50;4.07;;;;;;;6.03;100.00;100995.66;4940529;29;20051;-75
2023/01/10 00:51:38;;;;;;;16.05;3.30;;;;;;;6.11;100.00;100997.91;4921283;29;20036;-75
2023/01/10 00:54:03;;;;;;;22.13;3.40;;;;;;;6.03;100.00;101005.66;4936259;29;20135;-75
2023/01/10 00:56:29;;;;;;;21.75;3.47;;;;;;;5.90;100.00;100994.56;4937245;29;20406;-75
2023/01/10 00:58:54;;;;;;;23.52;3.50;;;;;;;5.86;100.00;100993.00;4938390;29;20040;-75
2023/01/10 01:01:20;;;;;;;18.77;3.60;;;;;;;5.87;100.00;101005.59;4944629;29;20047;-75
2023/01/10 01:03:45;;;;;;;22.67;3.88;;;;;;;5.81;100.00;101012.28;4938522;29;20126;-74
2023/01/10 01:06:10;;;;;;;13.15;3.35;;;;;;;5.95;100.00;101007.91;4922476;29;20071;-74
2023/01/10 01:08:36;;;;;;;25.77;3.75;;;;;;;5.83;100.00;101012.19;4940789;29;20628;-75
2023/01/10 01:11:01;;;;;;;23.38;3.40;;;;;;;5.87;100.00;101016.47;4921166;29;20044;-75
2023/01/10 01:13:27;;;;;;;24.38;3.78;;;;;;;5.84;100.00;101024.84;4957891;28;20122;-75
2023/01/10 01:15:57;;;;;;;19.35;2.88;;;;;;;5.84;100.00;101028.41;4933724;29;20067;-75
2023/01/10 01:18:22;;;;;;;22.80;3.35;;;;;;;5.87;100.00;101025.53;4951388;29;20039;-75
2023/01/10 01:20:52;;;;;;;16.35;3.53;;;;;;;5.79;100.00;101029.63;4939937;29;20044;-75
2023/01/10 01:23:18;;;;;;;30.23;3.53;;;;;;;5.86;100.00;101028.34;4937683;29;20094;-75
2023/01/10 01:25:43;;;;;;;26.33;3.33;;;;;;;5.87;100.00;101035.50;4936972;29;20068;-75
2023/01/10 01:28:12;;;;;;;13.48;2.75;;;;;;;5.69;100.00;101035.59;4932635;29;20472;-75
2023/01/10 01:30:37;;;;;;;19.35;3.53;;;;;;;5.66;100.00;101043.91;4922211;29;20036;-74
2023/01/10 01:33:03;;;;;;;22.05;3.28;;;;;;;5.61;100.00;101037.84;4945437;29;20438;-75
2023/01/10 01:35:28;;;;;;;17.33;3.50;;;;;;;5.74;100.00;101040.78;4934075;29;20103;-75
2023/01/10 01:37:54;;;;;;;25.20;3.22;;;;;;;5.85;100.00;101042.88;4913008;29;20028;-75
2023/01/10 01:40:21;;;;;;;22.90;3.63;;;;;;;5.64;100.00;101043.13;4925883;29;20036;-75
2023/01/10 01:42:47;;;;;;;20.55;3.70;;;;;;;5.62;100.00;101055.03;4948451;29;20078;-75
2023/01/10 01:45:13;;;;;;;22.45;3.60;;;;;;;5.60;100.00;101067.81;4904006;29;20563;-75
2023/01/10 01:47:43;;;;;;;16.48;3.20;;;;;;;5.62;100.00;101071.31;4929403;29;20024;-75
2023/01/10 01:50:36;;;;;;;13.13;2.33;;;;;;;5.62;100.00;101072.19;4951278;28;20031;-75
2023/01/10 01:53:26;;;;;;;29.20;3.63;;;;;;;5.69;100.00;101067.31;4935951;29;20549;-75
2023/01/10 01:55:56;;;;;;;26.80;5.45;;;;;;;5.64;100.00;101080.25;4936058;29;20205;-75
2023/01/10 01:58:27;;;;;;;25.50;4.75;;;;;;;5.47;100.00;101081.19;4939466;29;20042;-75
2023/01/10 02:00:53;;;;;;;17.13;3.08;;;;;;;5.44;100.00;101090.34;4952749;28;20046;-75
2023/01/10 02:03:19;;;;;;;24.35;4.32;;;;;;;5.50;100.00;101094.59;4920491;29;20609;-75
2023/01/10 02:05:45;;;;;;;17.77;3.42;;;;;;;5.51;100.00;101097.22;4952345;28;20047;-75
2023/01/10 02:08:11;;;;;;;21.25;3.55;;;;;;;5.41;100.00;101092.38;4921900;29;20549;-76
2023/01/10 02:11:07;;;;;;;30.92;4.00;;;;;;;5.38;100.00;101093.44;4933385;28;20047;-76
2023/01/10 02:13:37;;;;;;;22.05;3.63;;;;;;;5.48;100.00;101096.53;4939779;28;20075;-75
2023/01/10 02:16:03;;;;;;;12.40;3.20;;;;;;;5.43;100.00;101098.63;4944281;29;20494;-75
2023/01/10 02:18:28;;;;;;;22.00;4.00;;;;;;;5.53;100.00;101118.88;4938487;29;20035;-76
2023/01/10 02:21:32;;;;;;;15.57;3.63;;;;;;;5.58;100.00;101111.34;4934748;29;20450;-76
2023/01/10 02:24:22;;;;;;;21.77;3.40;;;;;;;5.61;100.00;101116.63;4922578;29;20038;-75
2023/01/10 02:27:34;;;;;;;27.15;4.28;;;;;;;5.63;100.00;101111.97;4938064;29;20031;-76
2023/01/10 02:30:32;;;;;;;21.52;3.40;;;;;;;5.70;100.00;101115.25;4865268;29;20073;-75
2023/01/10 02:33:04;;;;;;;19.15;2.97;;;;;;;5.62;100.00;101107.50;4919031;29;20030;-75
2023/01/10 02:35:40;;;;;;;18.15;3.15;;;;;;;5.66;100.00;101117.25;4924031;29;20054;-76
2023/01/10 02:38:23;;;;;;;26.20;3.40;;;;;;;5.73;100.00;101117.78;4953495;29;20044;-75
2023/01/10 02:41:22;;;;;;;22.83;3.53;;;;;;;5.87;100.00;101112.47;4937608;29;20126;-74
2023/01/10 02:44:05;;;;;;;12.90;2.33;;;;;;;5.78;100.00;101112.97;4942092;29;20027;-75
2023/01/10 02:46:33;;;;;;;15.65;2.95;;;;;;;5.83;100.00;101121.75;4953441;28;20071;-75
2023/01/10 02:48:58;;;;;;;13.15;2.78;;;;;;;5.90;100.00;101125.00;4936700;29;20079;-75
2023/01/10 02:51:27;;;;;;;28.25;4.07;;;;;;;6.00;100.00;101119.97;4937712;29;20115;-74
2023/01/10 02:54:08;;;;;;;19.52;2.90;;;;;;;5.84;100.00;101128.09;4938664;29;20032;-74
2023/01/10 02:56:33;;;;;;;19.80;3.08;;;;;;;5.76;100.00;101119.47;4948013;28;20036;-75
2023/01/10 02:59:34;;;;;;;22.00;3.00;;;;;;;5.75;100.00;101115.84;4936948;29;20344;-77
2023/01/10 03:02:19;;;;;;;18.30;2.90;;;;;;;5.66;100.00;101128.13;4942469;28;20027;-74
2023/01/10 03:05:13;;;;;;;21.00;3.60;;;;;;;5.77;100.00;101132.06;4938388;29;20047;-74
2023/01/10 03:07:52;;;;;;;12.65;2.28;;;;;;;5.71;100.00;101130.59;4936957;29;20035;-75
2023/01/10 03:10:20;;;;;;;13.30;2.53;;;;;;;5.62;100.00;101126.50;4942581;29;20090;-75
2023/01/10 03:13:01;;;;;;;24.98;3.50;;;;;;;5.56;100.00;101136.81;4946809;29;20409;-75
2023/01/10 03:15:35;;;;;;;27.50;3.47;;;;;;;5.71;100.00;101142.31;4940550;28;20046;-75
2023/01/10 03:18:05;;;;;;;24.17;3.83;;;;;;;5.66;100.00;101154.41;4958602;29;20031;-77
2023/01/10 03:20:35;;;;;;;17.00;3.00;;;;;;;5.66;100.00;101154.41;4974287;28;20031;-75
2023/01/10 03:23:04;;;;;;;10.57;2.58;;;;;;;5.62;100.00;101161.81;4958348;28;20070;-75
2023/01/10 03:25:34;;;;;;;21.38;2.90;;;;;;;5.57;100.00;101172.06;4958829;29;20434;-75
2023/01/10 03:28:15;;;;;;;25.00;3.22;;;;;;;5.70;100.00;101177.72;4958118;28;20427;-75
2023/01/10 03:30:45;;;;;;;20.02;2.90;;;;;;;5.54;100.00;101183.09;4958287;28;20035;-74
2023/01/10 03:33:15;;;;;;;23.33;3.10;;;;;;;5.70;100.00;101194.88;4950866;28;20038;-74
2023/01/10 03:35:49;;;;;;;13.70;2.83;;;;;;;5.70;100.00;101194.88;4941221;29;20038;-74
2023/01/10 03:38:25;;;;;;;16.77;2.28;;;;;;;5.66;100.00;101201.47;4956300;28;20112;-76
2023/01/10 03:41:05;;;;;;;21.40;2.97;;;;;;;5.64;100.00;101202.47;4943328;29;20034;-74
2023/01/10 03:46:59;;;;;;;17.75;3.08;;;;;;;5.65;100.00;101213.28;4940424;28;20027;-74
2023/01/10 03:49:27;;;;;;;21.88;2.75;;;;;;;5.68;100.00;101204.09;4957127;28;20390;-75
2023/01/10 03:51:55;;;;;;;23.48;2.75;;;;;;;5.71;100.00;101201.22;4924333;29;20027;-75
2023/01/10 03:54:21;;;;;;;20.13;3.83;;;;;;;5.68;100.00;101212.25;4956410;28;20039;-75
2023/01/10 03:56:49;;;;;;;21.40;2.83;;;;;;;5.67;100.00;101208.66;4948109;29;20039;-75
2023/01/10 03:59:16;;;;;;;28.77;3.60;;;;;;;5.70;100.00;101207.59;4957567;28;20035;-75
2023/01/10 04:01:42;;;;;;;34.13;4.13;;;;;;;5.70;100.00;101204.88;4956546;28;20553;-74
2023/01/10 04:04:07;;;;;;;20.08;2.45;;;;;;;5.82;100.00;101215.13;4956555;29;20113;-75
2023/01/10 04:06:32;;;;;;;16.50;2.80;;;;;;;5.76;100.00;101222.72;4972790;28;20051;-75
2023/01/10 04:08:58;;;;;;;24.80;3.13;;;;;;;5.69;100.00;101224.88;4955484;28;20405;-74
2023/01/10 04:11:23;;;;;;;27.15;3.05;;;;;;;5.75;100.00;101219.09;4924716;29;20121;-75
2023/01/10 04:13:49;;;;;;;24.10;2.88;;;;;;;5.84;100.00;101223.19;4928322;28;20130;-75
2023/01/10 04:16:14;;;;;;;29.88;3.33;;;;;;;6.01;100.00;101223.16;4944767;29;20042;-75
2023/01/10 04:18:39;;;;;;;24.35;2.60;;;;;;;5.77;100.00;101216.31;4967495;28;20065;-75
2023/01/10 04:21:05;;;;;;;22.30;3.33;;;;;;;5.82;100.00;101225.97;4941357;28;20067;-76
2023/01/10 04:23:31;;;;;;;22.38;2.75;;;;;;;5.86;100.00;101213.09;4931422;29;20047;-75
2023/01/10 04:25:56;;;;;;;22.42;2.35;;;;;;;5.82;100.00;101235.94;4943541;28;20039;-76
2023/01/10 04:28:22;;;;;;;29.05;2.90;;;;;;;5.87;100.00;101223.00;4943294;28;20047;-76
2023/01/10 04:30:47;;;;;;;27.58;2.67;;;;;;;5.93;100.00;101228.09;4954878;29;20043;-75
2023/01/10 04:33:13;;;;;;;31.05;3.25;;;;;;;6.01;100.00;101235.88;4941743;28;20054;-75
2023/01/10 04:35:38;;;;;;;33.95;3.63;;;;;;;6.02;100.00;101235.81;4959486;28;20031;-75
2023/01/10 04:38:03;;;;;;;22.73;3.63;;;;;;;6.07;100.00;101241.00;4924504;28;20059;-75
2023/01/10 04:40:29;;;;;;;27.75;3.05;;;;;;;6.14;100.00;101241.53;4934295;28;20051;-75
2023/01/10 04:42:54;;;;;;;34.05;3.63;;;;;;;6.07;100.00;101247.31;4943292;28;20145;-75
2023/01/10 04:45:20;;;;;;;17.48;2.15;;;;;;;6.09;100.00;101239.06;4955506;28;20047;-75
2023/01/10 04:47:50;;;;;;;23.10;2.58;;;;;;;6.16;100.00;101250.50;4957942;28;20474;-75
2023/01/10 04:50:16;;;;;;;30.17;3.75;;;;;;;6.27;100.00;101250.78;4956434;28;20035;-75
2023/01/10 04:52:42;;;;;;;31.33;3.65;;;;;;;6.16;100.00;101243.19;4940710;29;20043;-75
2023/01/10 04:55:08;;;;;;;27.23;2.70;;;;;;;6.28;100.00;101251.66;4945148;29;20062;-74
2023/01/10 04:57:34;;;;;;;22.63;2.53;;;;;;;6.33;100.00;101252.28;4957270;29;20039;-75
2023/01/10 04:59:59;;;;;;;24.45;2.88;;;;;;;6.27;100.00;101248.06;4944495;29;20105;-75
2023/01/10 05:02:25;;;;;;;19.73;2.83;;;;;;;6.25;100.00;101259.03;4953211;29;20078;-75
2023/01/10 05:04:50;;;;;;;24.60;2.85;;;;;;;6.26;100.00;101265.31;4937500;29;20108;-75
2023/01/10 05:07:15;;;;;;;25.20;2.90;;;;;;;6.29;100.00;101257.00;4951621;28;20065;-76
2023/01/10 05:09:41;;;;;;;28.05;2.72;;;;;;;6.35;100.00;101274.84;4936829;29;20052;-75
2023/01/10 05:12:07;;;;;;;19.63;2.92;;;;;;;6.25;100.00;101274.47;4917886;29;20047;-76
2023/01/10 05:14:33;;;;;;;29.95;3.08;;;;;;;6.38;100.00;101277.41;4943222;29;20043;-75
2023/01/10 05:16:58;;;;;;;24.52;2.53;;;;;;;6.41;100.00;101271.75;4902609;29;20550;-74
2023/01/10 05:19:24;;;;;;;23.42;2.30;;;;;;;6.48;100.00;101264.16;4936501;29;20036;-74
2023/01/10 05:21:51;;;;;;;23.60;3.10;;;;;;;6.33;100.00;101250.44;4932057;29;20075;-75
2023/01/10 05:24:16;;;;;;;33.45;3.65;;;;;;;6.30;100.00;101260.63;4934281;29;20391;-74
2023/01/10 05:26:42;;;;;;;21.90;2.67;;;;;;;6.32;100.00;101273.16;4917513;29;20047;-75
2023/01/10 05:29:10;;;;;;;24.88;2.60;;;;;;;6.39;100.00;101274.56;4920483;29;20038;-74
2023/01/10 05:31:35;;;;;;;25.73;3.95;;;;;;;6.41;100.00;101280.81;4935126;29;20422;-75
2023/01/10 05:34:01;;;;;;;32.80;3.10;;;;;;;6.39;100.00;101282.72;4933985;29;20044;-75
2023/01/10 05:36:26;;;;;;;26.10;3.30;;;;;;;6.00;100.00;101296.63;4918849;29;20491;-75
2023/01/10 05:38:52;;;;;;;25.45;2.80;;;;;;;6.31;100.00;101304.03;4949077;28;20047;-75
2023/01/10 05:41:17;;;;;;;30.63;2.55;;;;;;;6.15;100.00;101308.53;4935274;29;20036;-76
2023/01/10 05:43:43;;;;;;;38.45;2.97;;;;;;;6.28;100.00;101308.75;4937269;29;20031;-77
2023/01/10 05:46:08;;;;;;;23.17;2.10;;;;;;;6.08;100.00;101297.09;4905823;29;20040;-77
2023/01/10 05:48:33;;;;;;;15.45;1.88;;;;;;;6.32;100.00;101327.53;4920691;29;20034;-75
2023/01/10 05:50:59;;;;;;;26.48;2.42;;;;;;;6.33;100.00;101332.03;4935311;29;20071;-76
2023/01/10 05:53:25;;;;;;;30.77;3.17;;;;;;;6.06;100.00;101334.38;4924540;29;20043;-75
2023/01/10 05:55:59;;;;;;;30.42;2.72;;;;;;;6.02;100.00;101325.50;4930791;29;20039;-75
2023/01/10 05:58:25;;;;;;;21.13;2.35;;;;;;;6.07;100.00;101327.97;4928276;29;20428;-76
2023/01/10 06:00:51;;;;;;;19.90;2.33;;;;;;;6.10;100.00;101318.78;4934566;29;20099;-76
2023/01/10 06:03:17;;;;;;;25.20;2.40;;;;;;;6.00;100.00;101331.97;4939524;29;20063;-76
2023/01/10 06:05:43;;;;;;;20.30;2.88;;;;;;;6.06;100.00;101327.09;4933811;29;20478;-75
2023/01/10 06:08:08;;;;;;;50.75;4.25;;;;;;;5.99;100.00;101328.38;4933109;29;20028;-75
2023/01/10 06:10:34;;;;;;;35.90;3.33;;;;;;;5.99;100.00;101331.09;4927040;28;20383;-76
2023/01/10 06:12:59;;;;;;;22.58;2.65;;;;;;;6.07;100.00;101342.44;4926515;29;20040;-76
2023/01/10 06:15:25;;;;;;;15.80;2.38;;;;;;;5.95;100.00;101342.16;4920511;29;20047;-75
2023/01/10 06:17:51;;;;;;;28.13;2.88;;;;;;;6.14;100.00;101333.97;4953176;28;20038;-75
2023/01/10 06:20:16;;;;;;;28.92;3.17;;;;;;;6.16;100.00;101342.91;4958822;28;20040;-75
2023/01/10 06:22:42;;;;;;;18.50;2.17;;;;;;;6.14;100.00;101331.25;4915461;29;20047;-75
2023/01/10 06:25:09;;;;;;;25.25;2.40;;;;;;;6.10;100.00;101337.81;4952184;28;20048;-75
2023/01/10 06:27:38;;;;;;;29.40;3.10;;;;;;;5.97;100.00;101337.56;4945916;29;20490;-75
2023/01/10 06:30:04;;;;;;;26.60;3.15;;;;;;;6.11;100.00;101358.59;4940257;29;20503;-78
2023/01/10 06:32:30;;;;;;;22.88;2.22;;;;;;;6.10;100.00;101360.44;4963972;28;20512;-76
2023/01/10 06:34:55;;;;;;;32.63;3.47;;;;;;;6.05;100.00;101347.09;4966574;28;20102;-76
2023/01/10 06:37:21;;;;;;;32.13;2.85;;;;;;;5.98;100.00;101350.19;4941894;29;20072;-75
2023/01/10 06:39:47;;;;;;;39.60;3.70;;;;;;;6.09;100.00;101363.25;4941549;29;20093;-75
2023/01/10 06:42:12;;;;;;;32.20;3.50;;;;;;;6.16;100.00;101361.94;4950711;29;20051;-75
2023/01/10 06:44:37;;;;;;;31.52;4.05;;;;;;;6.01;100.00;101359.06;4923275;29;20044;-75
2023/01/10 06:47:03;;;;;;;34.53;3.00;;;;;;;5.99;100.00;101371.88;4940086;29;20047;-75
2023/01/10 06:49:29;;;;;;;30.48;3.20;;;;;;;6.11;100.00;101378.50;4936381;29;20040;-75
2023/01/10 06:51:54;;;;;;;30.83;4.22;;;;;;;6.11;100.00;101377.63;4959565;28;20139;-75
2023/01/10 06:54:20;;;;;;;22.67;1.98;;;;;;;5.99;100.00;101390.03;4934997;29;20187;-75
2023/01/10 06:56:48;;;;;;;38.75;3.97;;;;;;;5.93;100.00;101374.00;4964917;28;20477;-75
2023/01/10 06:59:14;;;;;;;29.63;3.67;;;;;;;6.03;100.00;101395.22;4968078;28;20043;-75
2023/01/10 07:01:39;;;;;;;36.97;4.50;;;;;;;6.01;100.00;101399.84;4950923;29;20094;-75
2023/01/10 07:04:05;;;;;;;27.02;3.15;;;;;;;5.87;100.00;101405.06;4945455;29;20442;-75
2023/01/10 07:06:31;;;;;;;23.27;3.42;;;;;;;5.73;100.00;101392.19;4938304;29;20510;-75
2023/01/10 07:08:56;;;;;;;32.33;3.60;;;;;;;5.93;100.00;101410.19;4949354;28;20074;-75
2023/01/10 07:11:22;;;;;;;45.45;4.07;;;;;;;5.89;100.00;101411.31;4956814;28;20617;-76
2023/01/10 07:13:47;;;;;;;34.35;3.10;;;;;;;5.81;100.00;101408.13;4937665;29;20467;-75
2023/01/10 07:16:15;;;;;;;27.48;3.00;;;;;;;5.88;100.00;101418.56;4922486;29;20046;-75
2023/01/10 07:18:41;;;;;;;30.25;3.10;;;;;;;5.67;100.00;101426.00;4969136;28;20024;-75
2023/01/10 07:21:08;;;;;;;26.88;2.83;;;;;;;5.62;100.00;101432.59;4938575;29;20471;-75
2023/01/10 07:23:34;;;;;;;32.58;3.75;;;;;;;5.75;100.00;101441.00;4939346;29;20484;-75
2023/01/10 07:26:08;;;;;;;31.10;3.05;;;;;;;5.65;100.00;101449.59;4939510;29;20065;-75
2023/01/10 07:28:34;;;;;;;27.48;3.25;;;;;;;5.77;100.00;101449.97;4952232;29;20039;-74
2023/01/10 07:31:01;;;;;;;28.40;3.00;;;;;;;5.65;100.00;101441.47;4939372;28;20071;-74
2023/01/10 07:33:27;;;;;;;30.13;3.60;;;;;;;5.62;100.00;101427.16;4932862;29;20404;-75
2023/01/10 07:35:53;;;;;;;21.38;2.97;;;;;;;5.74;100.00;101445.59;4929885;29;20049;-74
2023/01/10 07:38:19;;;;;;;43.78;4.45;;;;;;;5.59;100.00;101446.31;4940923;29;20507;-75
2023/01/10 07:40:44;;;;;;;28.67;3.80;;;;;;;5.62;100.00;101457.03;4951970;28;20047;-75
2023/01/10 07:43:09;;;;;;;29.33;4.20;;;;;;;5.79;100.00;101467.06;4938143;29;20112;-75
2023/01/10 07:45:35;;;;;;;27.90;2.97;;;;;;;5.59;100.00;101447.22;4935969;29;20043;-75
2023/01/10 07:48:03;;;;;;;21.13;2.25;;;;;;;5.78;100.00;101476.19;4930192;29;20166;-75
2023/01/10 07:50:32;;;;;;;27.70;2.45;;;;;;;5.62;100.00;101476.03;4938292;29;20442;-75
2023/01/10 07:52:59;;;;;;;42.30;4.90;;;;;;;5.74;100.00;101486.34;4940032;29;20028;-74
2023/01/10 07:55:25;;;;;;;40.95;3.35;;;;;;;5.69;100.00;101483.84;4938969;29;20450;-75
2023/01/10 07:57:50;;;;;;;37.00;4.07;;;;;;;5.76;100.00;101494.41;4948329;28;20110;-75
2023/01/10 08:00:17;;;;;;;38.65;4.18;;;;;;;5.93;100.00;101499.88;4943458;29;20115;-75
2023/01/10 08:02:43;;;;;;;29.45;3.63;;;;;;;5.91;100.00;101493.66;4953249;29;20043;-77
2023/01/10 08:05:09;;;;;;;36.67;3.67;;;;;;;5.84;100.00;101484.06;4941160;29;20039;-75
2023/01/10 08:07:35;;;;;;;30.13;3.05;;;;;;;5.81;100.00;101495.06;4939493;29;20115;-75
2023/01/10 08:10:00;;;;;;;28.23;3.03;;;;;;;5.73;100.00;101500.84;4966521;28;20044;-75
2023/01/10 08:12:26;;;;;;;25.52;2.70;;;;;;;5.72;100.00;101496.38;4921132;29;20039;-76
2023/01/10 08:14:52;;;;;;;36.60;3.58;;;;;;;5.76;100.00;101500.72;4928277;29;21006;-75
2023/01/10 08:17:18;;;;;;;24.08;3.15;;;;;;;5.81;100.00;101490.50;4942109;29;20049;-75
2023/01/10 08:19:44;;;;;;;27.20;2.83;;;;;;;5.70;100.00;101504.59;4951786;29;20040;-74
2023/01/10 08:22:09;;;;;;;24.60;2.47;;;;;;;5.76;100.00;101502.56;4933888;29;20055;-74
2023/01/10 08:24:35;;;;;;;47.05;4.90;;;;;;;5.83;100.00;101495.88;4937850;29;20063;-76
2023/01/10 08:27:01;;;;;;;29.95;3.08;;;;;;;5.86;100.00;101503.88;4937508;29;20039;-76
2023/01/10 08:29:27;;;;;;;31.25;4.40;;;;;;;5.86;100.00;101496.59;4954210;29;20043;-76
2023/01/10 08:31:52;;;;;;;39.72;3.20;;;;;;;5.89;100.00;101503.72;4927609;29;20131;-76
2023/01/10 08:34:18;;;;;;;29.45;3.33;;;;;;;6.01;100.00;101507.69;4935030;29;20036;-75
2023/01/10 08:36:44;;;;;;;22.38;2.83;;;;;;;5.91;100.00;101496.38;4940224;29;20098;-75
2023/01/10 08:39:09;;;;;;;23.77;3.20;;;;;;;5.96;100.00;101494.34;4954553;28;20394;-75
2023/01/10 08:41:35;;;;;;;29.52;3.10;;;;;;;6.00;100.00;101501.38;4948755;28;20031;-77
2023/01/10 08:44:00;;;;;;;34.22;2.70;;;;;;;5.99;100.00;101496.03;4937432;29;20036;-75
2023/01/10 08:46:26;;;;;;;28.55;3.47;;;;;;;6.00;100.00;101497.78;4936063;29;20397;-76
2023/01/10 08:48:51;;;;;;;19.58;2.40;;;;;;;6.04;100.00;101489.38;4937003;29;20394;-75
2023/01/10 08:51:17;;;;;;;32.40;3.35;;;;;;;6.04;100.00;101492.09;4935504;29;20170;-76
2023/01/10 08:53:42;;;;;;;28.08;3.22;;;;;;;6.15;100.00;101497.03;4967722;28;20095;-75
2023/01/10 08:56:08;;;;;;;28.63;3.08;;;;;;;6.28;100.00;101493.66;4920438;29;20352;-75
2023/01/10 08:58:34;;;;;;;30.00;4.35;;;;;;;6.20;100.00;101492.22;4933440;29;20035;-76
2023/01/10 09:01:04;;;;;;;35.45;4.55;;;;;;;6.40;100.00;101493.91;4948161;29;20445;-75
2023/01/10 09:03:29;;;;;;;34.38;3.55;;;;;;;6.22;100.00;101494.88;4943986;29;20039;-75
2023/01/10 09:05:55;;;;;;;21.88;3.00;;;;;;;6.39;100.00;101486.72;4954217;29;20035;-75
2023/01/10 09:08:21;;;;;;;35.55;3.35;;;;;;;6.23;100.00;101483.03;4934605;28;20665;-77
2023/01/10 09:10:47;;;;;;;32.55;3.67;;;;;;;6.36;100.00;101484.19;4933688;29;20099;-76
2023/01/10 09:13:12;;;;;;;33.78;3.38;;;;;;;6.42;100.00;101485.69;4934805;29;20534;-75
2023/01/10 09:15:38;;;;;;;31.58;4.05;;;;;;;6.35;100.00;101482.41;4930349;29;20050;-75
2023/01/10 09:18:06;;;;;;;26.67;3.20;;;;;;;6.51;100.00;101489.75;4917578;29;20103;-76
2023/01/10 09:20:34;;;;;;;39.08;4.95;;;;;;;6.53;100.00;101494.19;4938544;29;20047;-75
2023/01/10 09:23:07;;;;;;;28.85;2.95;;;;;;;6.67;100.00;101490.72;4938698;28;20051;-75
2023/01/10 09:25:32;;;;;;;29.40;3.63;;;;;;;6.59;100.00;101482.97;4955060;28;20032;-76
2023/01/10 09:27:59;;;;;;;39.33;4.13;;;;;;;6.62;100.00;101485.53;4939668;29;20102;-76
2023/01/10 09:30:26;;;;;;;29.38;3.17;;;;;;;6.59;100.00;101485.69;4935660;29;20485;-76
2023/01/10 09:32:53;;;;;;;24.20;3.28;;;;;;;6.49;100.00;101483.53;4940474;29;20031;-75
2023/01/10 09:35:19;;;;;;;23.42;3.50;;;;;;;6.62;100.00;101487.38;4952649;28;20114;-75
2023/01/10 09:37:44;;;;;;;26.70;3.42;;;;;;;6.56;100.00;101482.22;4942170;29;20070;-76
2023/01/10 09:40:16;;;;;;;20.40;2.50;;;;;;;6.71;100.00;101484.16;4932974;29;20044;-75
2023/01/10 09:43:05;;;;;;;26.48;3.45;;;;;;;6.55;100.00;101486.81;4939110;29;20434;-75
2023/01/10 09:46:07;;;;;;;16.20;2.85;;;;;;;6.67;100.00;101481.69;4956382;28;20050;-76
2023/01/10 09:48:58;;;;;;;32.75;3.20;;;;;;;6.68;100.00;101491.63;4936410;29;20104;-76
2023/01/10 09:51:46;;;;;;;37.22;4.35;;;;;;;6.59;100.00;101492.97;4939600;29;20439;-75
2023/01/10 09:54:38;;;;;;;31.08;3.53;;;;;;;6.78;100.00;101491.03;4926200;29;20039;-76
2023/01/10 09:57:04;;;;;;;30.93;3.60;;;;;;;6.65;100.00;101502.66;4928374;29;20083;-75
2023/01/10 09:59:36;;;;;;;36.88;2.47;;;;;;;6.67;100.00;101498.00;4936606;29;20040;-76
2023/01/10 10:02:55;;;;;;;38.08;3.72;;;;;;;6.88;100.00;101498.72;4933208;29;20036;-75
2023/01/10 10:05:23;;;;;;;27.55;3.83;;;;;;;6.86;100.00;101496.06;4924757;29;20056;-74
2023/01/10 10:08:03;;;;;;;19.30;2.28;;;;;;;6.84;100.00;101497.09;4941279;29;20035;-75
2023/01/10 10:10:40;;;;;;;34.22;3.72;;;;;;;6.94;100.00;101499.28;4960879;28;20047;-74
2023/01/10 10:13:21;;;;;;;22.50;2.80;;;;;;;6.94;100.00;101499.28;4947958;28;20038;-74
2023/01/10 10:15:46;;;;;;;25.05;3.85;;;;;;;7.07;100.00;101504.06;4961903;28;20150;-75
2023/01/10 10:18:24;;;;;;;27.40;3.35;;;;;;;7.08;100.00;101495.78;4948656;29;20107;-75
2023/01/10 10:21:35;;;;;;;26.40;3.35;;;;;;;7.17;100.00;101489.84;4978800;28;20035;-74
2023/01/10 10:24:08;;;;;;;25.00;3.28;;;;;;;7.21;100.00;101473.34;4946765;28;20055;-75
2023/01/10 10:27:00;;;;;;;26.30;2.97;;;;;;;7.02;100.00;101465.28;4947798;28;20030;-75
2023/01/10 10:29:43;;;;;;;28.67;3.08;;;;;;;7.11;100.00;101460.22;4940008;29;20038;-75
2023/01/10 10:32:27;;;;;;;28.83;2.95;;;;;;;7.23;100.00;101465.97;4968525;28;20053;-74
2023/01/10 10:35:19;;;;;;;29.00;3.10;;;;;;;7.44;100.00;101461.16;4951578;28;20043;-75
2023/01/10 10:37:50;;;;;;;20.80;3.22;;;;;;;7.64;100.00;101457.31;4957834;28;20058;-74
2023/01/10 10:40:17;;;;;;;21.90;3.22;;;;;;;7.46;100.00;101457.41;4940966;29;20178;-75
2023/01/10 10:42:54;;;;;;;16.13;2.70;;;;;;;7.44;100.00;101459.31;4942696;29;20151;-75
2023/01/10 10:45:38;;;;;;;24.05;2.90;;;;;;;7.38;100.00;101447.88;4958882;29;20529;-75
2023/01/10 10:48:15;;;;;;;25.27;3.50;;;;;;;7.52;100.00;101440.69;4961382;28;20034;-75
2023/01/10 10:51:09;;;;;;;24.95;3.20;;;;;;;7.47;100.00;101445.53;4953919;28;20035;-75
2023/01/10 10:53:35;;;;;;;29.00;3.38;;;;;;;7.55;100.00;101432.34;4923466;29;20051;-75
2023/01/10 10:56:03;;;;;;;35.65;5.03;;;;;;;7.65;100.00;101429.97;4942002;29;20075;-75
2023/01/10 10:58:30;;;;;;;24.63;2.78;;;;;;;7.63;100.00;101428.31;4949633;29;20044;-75
2023/01/10 11:00:57;;;;;;;26.17;2.95;;;;;;;7.77;100.00;101422.06;4956011;29;20039;-75
2023/01/10 11:03:55;;;;;;;28.70;3.17;;;;;;;7.78;100.00;101418.38;4927705;28;20151;-75
2023/01/10 11:06:24;;;;;;;30.67;3.10;;;;;;;7.61;100.00;101413.88;4924312;29;20081;-75
2023/01/10 11:08:54;;;;;;;24.58;3.38;;;;;;;7.61;100.00;101422.06;4941049;29;20054;-76
2023/01/10 11:11:26;;;;;;;29.83;2.95;;;;;;;7.75;100.00;101411.22;4922367;29;20043;-75
2023/01/10 11:13:53;;;;;;;35.60;3.67;;;;;;;7.78;100.00;101412.91;4949309;29;20031;-75
2023/01/10 11:16:27;;;;;;;25.10;3.85;;;;;;;8.00;100.00;101415.25;4960318;28;20767;-75
2023/01/10 11:19:20;;;;;;;24.90;2.75;;;;;;;7.76;100.00;101402.09;4958086;28;20077;-75
2023/01/10 11:21:57;;;;;;;21.42;3.33;;;;;;;7.84;100.00;101409.84;4970195;28;20035;-75
2023/01/10 11:24:39;;;;;;;16.08;2.08;;;;;;;7.83;100.00;101400.75;4957137;28;20037;-75
2023/01/10 11:27:17;;;;;;;30.60;2.87;;;;;;;7.98;100.00;101407.16;4927036;29;20031;-74
2023/01/10 11:29:48;;;;;;;19.30;2.63;;;;;;;8.01;100.00;101412.44;4959065;29;20402;-75
2023/01/10 11:32:17;;;;;;;30.55;4.00;;;;;;;7.93;100.00;101411.13;4958957;28;20034;-74
2023/01/10 11:34:54;;;;;;;28.30;3.20;;;;;;;7.95;100.00;101403.72;4959225;28;20035;-76
2023/01/10 11:37:26;;;;;;;33.78;3.10;;;;;;;8.10;100.00;101403.72;4967031;28;20126;-75
2023/01/10 11:40:13;;;;;;;21.33;3.25;;;;;;;8.14;100.00;101404.41;4959484;29;20062;-75